Terminal Aerodrome Forecast
Issued by NWS Upton, NY

Home | Current Version | Previous Version | Text Only | Print | Product List | Glossary On
Versions: 1 2 3 4 5 6 7 8 9 10 11 12 13 14 15 16 17 18 19 20 21 22 23 24 25 26 27 28 29 30 31 32 33 34 35 36 37
000
FTUS41 KOKX 221338 AAB
TAFEWR
TAF AMD
KEWR 221338Z 2214/2318 02012G19KT P6SM -RA FEW035 OVC050
      TEMPO 2215/2217 BKN030
     FM221700 03011G19KT 5SM -RA OVC015
     FM222100 03010G16KT 3SM -RA OVC007
      TEMPO 2221/2224 3SM -RAPL
     FM230000 03009KT 6SM BR BKN007 OVC015
     FM230600 04006KT P6SM BKN015
     FM231300 07006KT P6SM OVC012
     FM231600 07007KT 5SM -RA OVC008=

USA.gov is the U.S. government's official web portal to all federal, state and local government web resources and services.